sensor_id;sensor_type;location;lat;lon;timestamp;pressure;altitude;pressure_sealevel;temperature;humidity
26531;BME280;14201;43.188;24.160;2022-12-07T00:01:40;99790.28;;;6.42;100.00
26531;BME280;14201;43.188;24.160;2022-12-07T00:04:07;99794.91;;;6.47;100.00
26531;BME280;14201;43.188;24.160;2022-12-07T00:06:35;99792.03;;;6.43;100.00
26531;BME280;14201;43.188;24.160;2022-12-07T00:09:01;99790.53;;;6.46;100.00
26531;BME280;14201;43.188;24.160;2022-12-07T00:11:27;99788.84;;;6.47;100.00
26531;BME280;14201;43.188;24.160;2022-12-07T00:13:55;99796.50;;;6.45;100.00
26531;BME280;14201;43.188;24.160;2022-12-07T00:16:23;99790.91;;;6.53;100.00
26531;BME280;14201;43.188;24.160;2022-12-07T00:18:49;99794.91;;;6.47;100.00
26531;BME280;14201;43.188;24.160;2022-12-07T00:21:18;99802.09;;;6.52;100.00
26531;BME280;14201;43.188;24.160;2022-12-07T00:23:45;99796.19;;;6.54;100.00
26531;BME280;14201;43.188;24.160;2022-12-07T00:26:16;99795.19;;;6.52;100.00
26531;BME280;14201;43.188;24.160;2022-12-07T00:28:46;99793.81;;;6.57;100.00
26531;BME280;14201;43.188;24.160;2022-12-07T00:31:12;99796.38;;;6.57;100.00
26531;BME280;14201;43.188;24.160;2022-12-07T00:33:39;99783.50;;;6.59;100.00
26531;BME280;14201;43.188;24.160;2022-12-07T00:36:07;99783.97;;;6.52;100.00
26531;BME280;14201;43.188;24.160;2022-12-07T00:38:35;99780.41;;;6.49;100.00
26531;BME280;14201;43.188;24.160;2022-12-07T00:41:03;99791.91;;;6.55;100.00
26531;BME280;14201;43.188;24.160;2022-12-07T00:43:30;99781.38;;;6.52;100.00
26531;BME280;14201;43.188;24.160;2022-12-07T00:45:56;99777.59;;;6.46;100.00
26531;BME280;14201;43.188;24.160;2022-12-07T00:48:22;99781.91;;;6.46;100.00
26531;BME280;14201;43.188;24.160;2022-12-07T00:50:48;99788.75;;;6.45;100.00
26531;BME280;14201;43.188;24.160;2022-12-07T00:53:15;99788.22;;;6.51;100.00
26531;BME280;14201;43.188;24.160;2022-12-07T00:55:41;99783.88;;;6.50;100.00
26531;BME280;14201;43.188;24.160;2022-12-07T00:58:07;99774.50;;;6.52;100.00
26531;BME280;14201;43.188;24.160;2022-12-07T01:00:36;99780.75;;;6.56;100.00
26531;BME280;14201;43.188;24.160;2022-12-07T01:03:03;99756.28;;;6.50;100.00
26531;BME280;14201;43.188;24.160;2022-12-07T01:05:28;99769.28;;;6.65;100.00
26531;BME280;14201;43.188;24.160;2022-12-07T01:07:54;99776.22;;;6.66;100.00
26531;BME280;14201;43.188;24.160;2022-12-07T01:10:19;99771.50;;;6.59;100.00
26531;BME280;14201;43.188;24.160;2022-12-07T01:12:45;99757.13;;;6.64;100.00
26531;BME280;14201;43.188;24.160;2022-12-07T01:15:10;99765.16;;;6.69;100.00
26531;BME280;14201;43.188;24.160;2022-12-07T01:17:36;99768.34;;;6.65;100.00
26531;BME280;14201;43.188;24.160;2022-12-07T01:20:03;99754.88;;;6.70;100.00
26531;BME280;14201;43.188;24.160;2022-12-07T01:22:28;99751.59;;;6.73;100.00
26531;BME280;14201;43.188;24.160;2022-12-07T01:24:54;99750.00;;;6.75;100.00
26531;BME280;14201;43.188;24.160;2022-12-07T01:27:20;99749.13;;;6.75;100.00
26531;BME280;14201;43.188;24.160;2022-12-07T01:29:46;99742.94;;;6.87;100.00
26531;BME280;14201;43.188;24.160;2022-12-07T01:32:11;99739.97;;;6.66;100.00
26531;BME280;14201;43.188;24.160;2022-12-07T01:34:37;99745.97;;;6.65;100.00
26531;BME280;14201;43.188;24.160;2022-12-07T01:37:02;99732.06;;;6.63;100.00
26531;BME280;14201;43.188;24.160;2022-12-07T01:39:28;99736.41;;;6.64;100.00
26531;BME280;14201;43.188;24.160;2022-12-07T01:41:54;99738.84;;;6.61;100.00
26531;BME280;14201;43.188;24.160;2022-12-07T01:44:25;99737.66;;;6.56;100.00
26531;BME280;14201;43.188;24.160;2022-12-07T01:46:52;99735.44;;;6.62;100.00
26531;BME280;14201;43.188;24.160;2022-12-07T01:49:37;99731.75;;;6.59;100.00
26531;BME280;14201;43.188;24.160;2022-12-07T01:52:16;99740.16;;;6.55;100.00
26531;BME280;14201;43.188;24.160;2022-12-07T01:54:47;99726.75;;;6.47;100.00
26531;BME280;14201;43.188;24.160;2022-12-07T01:57:15;99729.53;;;6.50;100.00
26531;BME280;14201;43.188;24.160;2022-12-07T01:59:43;99725.16;;;6.49;100.00
26531;BME280;14201;43.188;24.160;2022-12-07T02:02:18;99729.16;;;6.59;100.00
26531;BME280;14201;43.188;24.160;2022-12-07T02:04:45;99728.75;;;6.66;100.00
26531;BME280;14201;43.188;24.160;2022-12-07T02:07:11;99725.19;;;6.64;100.00
26531;BME280;14201;43.188;24.160;2022-12-07T02:09:37;99724.66;;;6.69;100.00
26531;BME280;14201;43.188;24.160;2022-12-07T02:12:03;99721.44;;;6.74;100.00
26531;BME280;14201;43.188;24.160;2022-12-07T02:14:29;99721.25;;;6.70;100.00
26531;BME280;14201;43.188;24.160;2022-12-07T02:17:24;99712.50;;;6.68;100.00
26531;BME280;14201;43.188;24.160;2022-12-07T02:30:02;99707.59;;;6.88;100.00
26531;BME280;14201;43.188;24.160;2022-12-07T02:35:15;99708.13;;;6.97;100.00
26531;BME280;14201;43.188;24.160;2022-12-07T02:38:13;99705.25;;;7.07;100.00
26531;BME280;14201;43.188;24.160;2022-12-07T02:40:50;99710.91;;;7.00;100.00
26531;BME280;14201;43.188;24.160;2022-12-07T02:45:57;99706.25;;;7.09;98.63
26531;BME280;14201;43.188;24.160;2022-12-07T02:48:24;99699.09;;;7.05;98.52
26531;BME280;14201;43.188;24.160;2022-12-07T02:50:52;99687.50;;;6.99;99.16
26531;BME280;14201;43.188;24.160;2022-12-07T02:53:38;99707.97;;;6.94;99.91
26531;BME280;14201;43.188;24.160;2022-12-07T03:17:57;99689.75;;;6.48;100.00
26531;BME280;14201;43.188;24.160;2022-12-07T03:20:26;99682.69;;;6.60;100.00
26531;BME280;14201;43.188;24.160;2022-12-07T03:22:54;99687.31;;;6.51;100.00
26531;BME280;14201;43.188;24.160;2022-12-07T03:25:20;99686.25;;;6.33;100.00
26531;BME280;14201;43.188;24.160;2022-12-07T03:27:51;99686.59;;;6.39;100.00
26531;BME280;14201;43.188;24.160;2022-12-07T03:36:46;99672.50;;;6.34;100.00
26531;BME280;14201;43.188;24.160;2022-12-07T03:39:29;99684.81;;;6.23;100.00
26531;BME280;14201;43.188;24.160;2022-12-07T03:41:59;99677.47;;;6.16;100.00
26531;BME280;14201;43.188;24.160;2022-12-07T03:44:27;99668.75;;;6.28;100.00
26531;BME280;14201;43.188;24.160;2022-12-07T03:47:07;99674.72;;;6.27;100.00
26531;BME280;14201;43.188;24.160;2022-12-07T03:52:30;99678.75;;;6.22;100.00
26531;BME280;14201;43.188;24.160;2022-12-07T03:54:59;99675.66;;;6.00;100.00
26531;BME280;14201;43.188;24.160;2022-12-07T03:57:27;99672.38;;;5.89;100.00
26531;BME280;14201;43.188;24.160;2022-12-07T03:59:55;99675.88;;;5.89;100.00
26531;BME280;14201;43.188;24.160;2022-12-07T04:02:22;99672.00;;;5.83;100.00
26531;BME280;14201;43.188;24.160;2022-12-07T04:04:49;99670.19;;;5.95;100.00
26531;BME280;14201;43.188;24.160;2022-12-07T04:07:15;99682.06;;;5.78;100.00
26531;BME280;14201;43.188;24.160;2022-12-07T04:09:40;99674.06;;;5.88;100.00
26531;BME280;14201;43.188;24.160;2022-12-07T04:12:06;99673.56;;;5.94;100.00
26531;BME280;14201;43.188;24.160;2022-12-07T04:14:32;99667.19;;;6.02;100.00
26531;BME280;14201;43.188;24.160;2022-12-07T04:16:58;99670.66;;;6.03;100.00
26531;BME280;14201;43.188;24.160;2022-12-07T04:19:26;99666.19;;;6.00;100.00
26531;BME280;14201;43.188;24.160;2022-12-07T04:21:53;99665.69;;;6.06;100.00
26531;BME280;14201;43.188;24.160;2022-12-07T04:24:18;99660.72;;;6.09;100.00
26531;BME280;14201;43.188;24.160;2022-12-07T04:26:45;99661.59;;;6.09;100.00
26531;BME280;14201;43.188;24.160;2022-12-07T04:29:11;99646.44;;;6.16;100.00
26531;BME280;14201;43.188;24.160;2022-12-07T04:31:37;99642.78;;;6.12;98.40
26531;BME280;14201;43.188;24.160;2022-12-07T04:34:04;99649.81;;;6.00;97.40
26531;BME280;14201;43.188;24.160;2022-12-07T04:36:30;99642.00;;;6.13;97.04
26531;BME280;14201;43.188;24.160;2022-12-07T04:38:55;99641.63;;;6.07;98.49
26531;BME280;14201;43.188;24.160;2022-12-07T04:41:22;99639.72;;;6.04;99.14
26531;BME280;14201;43.188;24.160;2022-12-07T04:44:03;99649.81;;;6.00;100.00
26531;BME280;14201;43.188;24.160;2022-12-07T04:46:33;99647.03;;;5.97;100.00
26531;BME280;14201;43.188;24.160;2022-12-07T04:48:59;99649.69;;;5.98;100.00
26531;BME280;14201;43.188;24.160;2022-12-07T04:51:27;99654.25;;;6.02;100.00
26531;BME280;14201;43.188;24.160;2022-12-07T04:53:54;99649.97;;;6.03;99.96
26531;BME280;14201;43.188;24.160;2022-12-07T04:56:20;99644.78;;;6.03;99.54
26531;BME280;14201;43.188;24.160;2022-12-07T04:58:47;99646.69;;;6.05;99.74
26531;BME280;14201;43.188;24.160;2022-12-07T05:01:15;99643.41;;;6.08;99.64
26531;BME280;14201;43.188;24.160;2022-12-07T05:03:41;99632.53;;;6.14;98.06
26531;BME280;14201;43.188;24.160;2022-12-07T05:06:07;99634.75;;;6.07;98.22
26531;BME280;14201;43.188;24.160;2022-12-07T05:08:33;99640.72;;;6.06;98.51
26531;BME280;14201;43.188;24.160;2022-12-07T05:11:00;99634.66;;;6.06;97.95
26531;BME280;14201;43.188;24.160;2022-12-07T05:13:26;99631.97;;;6.04;94.94
26531;BME280;14201;43.188;24.160;2022-12-07T05:15:51;99640.19;;;5.97;94.24
26531;BME280;14201;43.188;24.160;2022-12-07T05:18:17;99637.09;;;5.89;93.94
26531;BME280;14201;43.188;24.160;2022-12-07T05:20:43;99630.38;;;5.78;95.57
26531;BME280;14201;43.188;24.160;2022-12-07T05:23:09;99635.56;;;5.78;95.79
26531;BME280;14201;43.188;24.160;2022-12-07T05:25:35;99635.66;;;5.80;96.58
26531;BME280;14201;43.188;24.160;2022-12-07T05:28:02;99647.44;;;5.89;96.48
26531;BME280;14201;43.188;24.160;2022-12-07T05:30:28;99650.59;;;5.85;97.30
26531;BME280;14201;43.188;24.160;2022-12-07T05:32:54;99653.13;;;5.84;97.26
26531;BME280;14201;43.188;24.160;2022-12-07T05:35:20;99649.03;;;5.87;98.13
26531;BME280;14201;43.188;24.160;2022-12-07T05:37:46;99644.03;;;5.90;97.73
26531;BME280;14201;43.188;24.160;2022-12-07T05:40:12;99646.72;;;5.92;97.04
26531;BME280;14201;43.188;24.160;2022-12-07T05:42:39;99636.88;;;6.00;96.65
26531;BME280;14201;43.188;24.160;2022-12-07T05:45:05;99641.56;;;5.92;95.82
26531;BME280;14201;43.188;24.160;2022-12-07T05:47:31;99634.50;;;5.89;96.74
26531;BME280;14201;43.188;24.160;2022-12-07T05:49:57;99638.88;;;5.90;97.25
26531;BME280;14201;43.188;24.160;2022-12-07T05:52:23;99635.31;;;5.88;97.22
26531;BME280;14201;43.188;24.160;2022-12-07T05:54:48;99630.81;;;5.99;97.10
26531;BME280;14201;43.188;24.160;2022-12-07T05:57:14;99621.28;;;5.98;96.89
26531;BME280;14201;43.188;24.160;2022-12-07T05:59:40;99622.19;;;5.85;96.49
26531;BME280;14201;43.188;24.160;2022-12-07T06:02:09;99637.97;;;5.90;96.83
26531;BME280;14201;43.188;24.160;2022-12-07T06:04:37;99641.97;;;5.85;97.60
26531;BME280;14201;43.188;24.160;2022-12-07T06:07:04;99634.84;;;5.81;97.84
26531;BME280;14201;43.188;24.160;2022-12-07T06:09:31;99638.69;;;5.87;98.25
26531;BME280;14201;43.188;24.160;2022-12-07T06:11:57;99636.28;;;5.90;97.95
26531;BME280;14201;43.188;24.160;2022-12-07T06:14:42;99626.44;;;5.98;97.40
26531;BME280;14201;43.188;24.160;2022-12-07T06:17:08;99613.22;;;5.94;97.85
26531;BME280;14201;43.188;24.160;2022-12-07T06:19:34;99614.34;;;5.97;97.76
26531;BME280;14201;43.188;24.160;2022-12-07T06:22:00;99609.81;;;5.95;98.22
26531;BME280;14201;43.188;24.160;2022-12-07T06:24:26;99614.06;;;5.79;98.73
26531;BME280;14201;43.188;24.160;2022-12-07T06:26:52;99617.72;;;5.83;99.56
26531;BME280;14201;43.188;24.160;2022-12-07T06:29:18;99621.44;;;5.73;100.00
26531;BME280;14201;43.188;24.160;2022-12-07T06:31:44;99615.91;;;5.67;100.00
26531;BME280;14201;43.188;24.160;2022-12-07T06:34:12;99625.31;;;5.80;100.00
26531;BME280;14201;43.188;24.160;2022-12-07T06:36:38;99623.50;;;5.79;100.00
26531;BME280;14201;43.188;24.160;2022-12-07T06:39:04;99631.72;;;5.86;100.00
26531;BME280;14201;43.188;24.160;2022-12-07T06:41:31;99631.09;;;5.90;100.00
26531;BME280;14201;43.188;24.160;2022-12-07T06:43:56;99631.41;;;5.95;100.00
26531;BME280;14201;43.188;24.160;2022-12-07T06:46:23;99640.25;;;5.99;100.00
26531;BME280;14201;43.188;24.160;2022-12-07T06:48:50;99644.13;;;6.05;100.00
26531;BME280;14201;43.188;24.160;2022-12-07T06:51:16;99644.13;;;6.20;100.00
26531;BME280;14201;43.188;24.160;2022-12-07T06:53:42;99640.22;;;6.27;100.00
26531;BME280;14201;43.188;24.160;2022-12-07T06:56:07;99641.00;;;6.26;100.00
26531;BME280;14201;43.188;24.160;2022-12-07T06:58:33;99652.72;;;6.34;100.00
26531;BME280;14201;43.188;24.160;2022-12-07T07:00:58;99657.25;;;6.38;100.00
26531;BME280;14201;43.188;24.160;2022-12-07T07:03:24;99643.63;;;6.41;100.00
26531;BME280;14201;43.188;24.160;2022-12-07T07:05:50;99643.44;;;6.53;100.00
26531;BME280;14201;43.188;24.160;2022-12-07T07:08:15;99645.94;;;6.66;100.00
26531;BME280;14201;43.188;24.160;2022-12-07T07:10:41;99651.28;;;6.69;99.36
26531;BME280;14201;43.188;24.160;2022-12-07T07:13:08;99651.56;;;6.74;98.90
26531;BME280;14201;43.188;24.160;2022-12-07T07:15:34;99647.09;;;6.71;99.31
26531;BME280;14201;43.188;24.160;2022-12-07T07:18:00;99617.72;;;6.70;99.20
26531;BME280;14201;43.188;24.160;2022-12-07T07:20:26;99639.47;;;6.89;99.07
26531;BME280;14201;43.188;24.160;2022-12-07T07:22:55;99640.22;;;6.86;99.21
26531;BME280;14201;43.188;24.160;2022-12-07T07:25:21;99641.34;;;6.92;100.00
26531;BME280;14201;43.188;24.160;2022-12-07T07:27:47;99651.16;;;6.97;100.00
26531;BME280;14201;43.188;24.160;2022-12-07T07:30:12;99642.31;;;7.08;99.57
26531;BME280;14201;43.188;24.160;2022-12-07T07:32:38;99643.63;;;7.17;98.91
26531;BME280;14201;43.188;24.160;2022-12-07T07:35:04;99644.56;;;7.34;98.19
26531;BME280;14201;43.188;24.160;2022-12-07T07:37:30;99654.19;;;7.36;97.92
26531;BME280;14201;43.188;24.160;2022-12-07T07:39:55;99646.50;;;7.38;98.69
26531;BME280;14201;43.188;24.160;2022-12-07T07:42:22;99650.34;;;7.61;96.29
26531;BME280;14201;43.188;24.160;2022-12-07T07:44:47;99647.28;;;7.68;94.92
26531;BME280;14201;43.188;24.160;2022-12-07T07:47:13;99648.91;;;7.66;94.16
26531;BME280;14201;43.188;24.160;2022-12-07T07:49:38;99655.34;;;7.58;94.05
26531;BME280;14201;43.188;24.160;2022-12-07T07:52:05;99654.78;;;7.47;94.68
26531;BME280;14201;43.188;24.160;2022-12-07T07:54:31;99657.47;;;7.65;93.87
26531;BME280;14201;43.188;24.160;2022-12-07T07:56:57;99646.78;;;7.75;93.24
26531;BME280;14201;43.188;24.160;2022-12-07T07:59:22;99643.06;;;7.86;92.10
26531;BME280;14201;43.188;24.160;2022-12-07T08:01:48;99637.22;;;7.91;92.64
26531;BME280;14201;43.188;24.160;2022-12-07T08:04:14;99643.13;;;8.04;92.17
26531;BME280;14201;43.188;24.160;2022-12-07T08:06:39;99628.81;;;8.11;92.52
26531;BME280;14201;43.188;24.160;2022-12-07T08:09:07;99631.94;;;8.22;91.76
26531;BME280;14201;43.188;24.160;2022-12-07T08:11:33;99639.66;;;8.20;90.89
26531;BME280;14201;43.188;24.160;2022-12-07T08:13:59;99638.97;;;8.41;88.88
26531;BME280;14201;43.188;24.160;2022-12-07T08:16:25;99638.31;;;8.61;88.37
26531;BME280;14201;43.188;24.160;2022-12-07T08:18:51;99633.88;;;8.77;87.48
26531;BME280;14201;43.188;24.160;2022-12-07T08:21:16;99643.72;;;8.84;87.55
26531;BME280;14201;43.188;24.160;2022-12-07T08:23:42;99642.91;;;9.03;87.29
26531;BME280;14201;43.188;24.160;2022-12-07T08:26:10;99633.84;;;9.13;87.46
26531;BME280;14201;43.188;24.160;2022-12-07T08:28:37;99623.63;;;9.16;87.57
26531;BME280;14201;43.188;24.160;2022-12-07T08:31:05;99630.66;;;9.18;85.89
26531;BME280;14201;43.188;24.160;2022-12-07T08:33:31;99627.84;;;9.14;85.66
26531;BME280;14201;43.188;24.160;2022-12-07T08:36:06;99634.75;;;9.31;86.83
26531;BME280;14201;43.188;24.160;2022-12-07T08:38:35;99624.91;;;9.43;88.60
26531;BME280;14201;43.188;24.160;2022-12-07T08:41:01;99625.63;;;9.59;88.04
26531;BME280;14201;43.188;24.160;2022-12-07T08:43:27;99613.16;;;9.71;86.54
26531;BME280;14201;43.188;24.160;2022-12-07T08:46:13;99616.94;;;9.78;85.79
26531;BME280;14201;43.188;24.160;2022-12-07T08:51:29;99603.78;;;9.94;83.90
26531;BME280;14201;43.188;24.160;2022-12-07T08:53:55;99605.06;;;10.04;84.96
26531;BME280;14201;43.188;24.160;2022-12-07T08:56:23;99601.44;;;10.20;83.32
26531;BME280;14201;43.188;24.160;2022-12-07T08:58:49;99600.59;;;10.21;83.70
26531;BME280;14201;43.188;24.160;2022-12-07T09:01:15;99595.47;;;10.22;79.44
26531;BME280;14201;43.188;24.160;2022-12-07T09:03:41;99605.50;;;10.54;81.27
26531;BME280;14201;43.188;24.160;2022-12-07T09:06:07;99600.47;;;10.79;79.74
26531;BME280;14201;43.188;24.160;2022-12-07T09:08:36;99587.41;;;11.00;78.08
26531;BME280;14201;43.188;24.160;2022-12-07T09:11:03;99584.88;;;11.02;76.84
26531;BME280;14201;43.188;24.160;2022-12-07T09:13:28;99578.06;;;10.62;77.86
26531;BME280;14201;43.188;24.160;2022-12-07T09:15:54;99581.75;;;10.46;77.52
26531;BME280;14201;43.188;24.160;2022-12-07T09:18:19;99577.41;;;10.47;77.37
26531;BME280;14201;43.188;24.160;2022-12-07T09:20:45;99562.88;;;10.31;78.13
26531;BME280;14201;43.188;24.160;2022-12-07T09:23:11;99572.19;;;10.06;79.97
26531;BME280;14201;43.188;24.160;2022-12-07T09:25:36;99572.63;;;9.96;80.42
26531;BME280;14201;43.188;24.160;2022-12-07T09:28:02;99562.47;;;9.81;80.34
26531;BME280;14201;43.188;24.160;2022-12-07T09:30:27;99556.78;;;9.70;81.59
26531;BME280;14201;43.188;24.160;2022-12-07T09:32:54;99558.97;;;9.80;81.57
26531;BME280;14201;43.188;24.160;2022-12-07T09:35:20;99550.28;;;9.80;82.08
26531;BME280;14201;43.188;24.160;2022-12-07T09:37:46;99544.38;;;9.84;81.30
26531;BME280;14201;43.188;24.160;2022-12-07T09:40:13;99547.06;;;9.85;81.05
26531;BME280;14201;43.188;24.160;2022-12-07T09:42:42;99556.56;;;9.85;81.53
26531;BME280;14201;43.188;24.160;2022-12-07T09:45:14;99549.69;;;10.07;80.23
26531;BME280;14201;43.188;24.160;2022-12-07T09:47:40;99541.66;;;10.02;80.90
26531;BME280;14201;43.188;24.160;2022-12-07T09:50:13;99534.97;;;10.07;82.26
26531;BME280;14201;43.188;24.160;2022-12-07T09:52:41;99528.31;;;10.35;80.80
26531;BME280;14201;43.188;24.160;2022-12-07T09:55:14;99530.38;;;10.42;80.95
26531;BME280;14201;43.188;24.160;2022-12-07T09:57:41;99529.03;;;10.52;79.67
26531;BME280;14201;43.188;24.160;2022-12-07T10:00:14;99514.50;;;10.57;79.72
26531;BME280;14201;43.188;24.160;2022-12-07T10:02:43;99516.44;;;10.85;83.03
26531;BME280;14201;43.188;24.160;2022-12-07T10:05:23;99519.16;;;11.11;79.31
26531;BME280;14201;43.188;24.160;2022-12-07T10:07:49;99511.63;;;11.18;77.39
26531;BME280;14201;43.188;24.160;2022-12-07T10:10:23;99510.66;;;11.15;77.09
26531;BME280;14201;43.188;24.160;2022-12-07T10:18:20;99489.94;;;10.73;76.54
26531;BME280;14201;43.188;24.160;2022-12-07T10:20:47;99494.25;;;10.95;79.39
26531;BME280;14201;43.188;24.160;2022-12-07T10:23:16;99491.03;;;11.25;79.72
26531;BME280;14201;43.188;24.160;2022-12-07T10:25:42;99490.22;;;11.50;80.00
26531;BME280;14201;43.188;24.160;2022-12-07T10:30:59;99471.72;;;11.68;79.31
26531;BME280;14201;43.188;24.160;2022-12-07T10:35:59;99470.66;;;12.12;78.57
26531;BME280;14201;43.188;24.160;2022-12-07T10:38:27;99458.03;;;12.26;76.83
26531;BME280;14201;43.188;24.160;2022-12-07T10:41:06;99459.22;;;12.36;76.69
26531;BME280;14201;43.188;24.160;2022-12-07T10:43:33;99452.81;;;12.53;75.69
26531;BME280;14201;43.188;24.160;2022-12-07T10:49:22;99461.19;;;12.70;75.16
26531;BME280;14201;43.188;24.160;2022-12-07T10:52:23;99463.88;;;12.73;75.44
26531;BME280;14201;43.188;24.160;2022-12-07T11:00:21;99440.31;;;12.72;73.05
26531;BME280;14201;43.188;24.160;2022-12-07T11:11:26;99428.44;;;12.83;75.19
26531;BME280;14201;43.188;24.160;2022-12-07T11:14:29;99423.38;;;12.88;74.48
26531;BME280;14201;43.188;24.160;2022-12-07T11:19:49;99422.38;;;12.84;74.21
26531;BME280;14201;43.188;24.160;2022-12-07T11:25:03;99418.22;;;12.91;72.29
26531;BME280;14201;43.188;24.160;2022-12-07T11:28:02;99418.66;;;12.76;73.10
26531;BME280;14201;43.188;24.160;2022-12-07T11:36:00;99413.16;;;12.67;74.38
26531;BME280;14201;43.188;24.160;2022-12-07T11:38:41;99407.75;;;12.60;73.76
26531;BME280;14201;43.188;24.160;2022-12-07T11:41:08;99404.09;;;12.55;75.00
26531;BME280;14201;43.188;24.160;2022-12-07T11:43:58;99402.41;;;12.57;74.89
26531;BME280;14201;43.188;24.160;2022-12-07T11:46:33;99398.88;;;12.55;75.66
26531;BME280;14201;43.188;24.160;2022-12-07T11:51:44;99390.28;;;12.59;75.72
26531;BME280;14201;43.188;24.160;2022-12-07T11:54:35;99391.22;;;12.61;76.04
26531;BME280;14201;43.188;24.160;2022-12-07T11:57:14;99381.56;;;12.59;77.07
26531;BME280;14201;43.188;24.160;2022-12-07T11:59:49;99381.16;;;12.74;75.72
26531;BME280;14201;43.188;24.160;2022-12-07T12:02:26;99367.88;;;12.68;75.73
26531;BME280;14201;43.188;24.160;2022-12-07T12:05:22;99362.59;;;12.65;76.09
26531;BME280;14201;43.188;24.160;2022-12-07T12:08:13;99367.88;;;12.68;76.04
26531;BME280;14201;43.188;24.160;2022-12-07T12:10:43;99363.06;;;12.82;77.09
26531;BME280;14201;43.188;24.160;2022-12-07T12:21:28;99352.56;;;12.80;76.14
26531;BME280;14201;43.188;24.160;2022-12-07T12:24:04;99354.47;;;12.86;75.49
26531;BME280;14201;43.188;24.160;2022-12-07T12:26:36;99346.38;;;12.76;76.27
26531;BME280;14201;43.188;24.160;2022-12-07T12:34:57;99349.91;;;12.78;77.75
26531;BME280;14201;43.188;24.160;2022-12-07T12:37:40;99346.09;;;12.67;78.12
26531;BME280;14201;43.188;24.160;2022-12-07T12:42:46;99344.88;;;12.54;78.83
26531;BME280;14201;43.188;24.160;2022-12-07T12:47:58;99342.16;;;12.51;79.31
26531;BME280;14201;43.188;24.160;2022-12-07T12:53:24;99344.66;;;12.48;80.07
26531;BME280;14201;43.188;24.160;2022-12-07T12:56:14;99337.88;;;12.53;80.36
26531;BME280;14201;43.188;24.160;2022-12-07T12:58:47;99338.44;;;12.43;80.13
26531;BME280;14201;43.188;24.160;2022-12-07T13:04:16;99341.69;;;12.36;80.77
26531;BME280;14201;43.188;24.160;2022-12-07T13:06:43;99335.53;;;12.34;80.30
26531;BME280;14201;43.188;24.160;2022-12-07T13:09:24;99331.03;;;12.28;81.00
26531;BME280;14201;43.188;24.160;2022-12-07T13:11:58;99331.31;;;12.37;79.83
26531;BME280;14201;43.188;24.160;2022-12-07T13:17:06;99330.38;;;12.35;80.18
26531;BME280;14201;43.188;24.160;2022-12-07T13:25:12;99333.75;;;12.31;80.97
26531;BME280;14201;43.188;24.160;2022-12-07T13:27:52;99331.06;;;12.30;80.79
26531;BME280;14201;43.188;24.160;2022-12-07T13:30:21;99331.72;;;12.23;82.02
26531;BME280;14201;43.188;24.160;2022-12-07T13:32:55;99296.09;;;11.96;82.39
26531;BME280;14201;43.188;24.160;2022-12-07T13:35:53;99341.69;;;12.07;83.13
26531;BME280;14201;43.188;24.160;2022-12-07T13:38:28;99333.72;;;12.02;83.41
26531;BME280;14201;43.188;24.160;2022-12-07T13:41:21;99332.72;;;11.99;83.66
26531;BME280;14201;43.188;24.160;2022-12-07T13:44:01;99337.72;;;11.91;84.22
26531;BME280;14201;43.188;24.160;2022-12-07T13:49:26;99305.50;;;11.63;83.62
26531;BME280;14201;43.188;24.160;2022-12-07T13:51:53;99330.72;;;11.65;83.62
26531;BME280;14201;43.188;24.160;2022-12-07T13:54:20;99333.19;;;11.60;83.52
26531;BME280;14201;43.188;24.160;2022-12-07T13:56:51;99331.00;;;11.47;83.95
26531;BME280;14201;43.188;24.160;2022-12-07T13:59:25;99344.88;;;11.46;84.08
26531;BME280;14201;43.188;24.160;2022-12-07T14:01:52;99344.53;;;11.35;85.31
26531;BME280;14201;43.188;24.160;2022-12-07T14:06:52;99337.91;;;11.20;85.58
26531;BME280;14201;43.188;24.160;2022-12-07T14:09:23;99342.31;;;11.21;85.75
26531;BME280;14201;43.188;24.160;2022-12-07T14:11:50;99337.91;;;11.20;85.88
26531;BME280;14201;43.188;24.160;2022-12-07T14:14:20;99338.84;;;11.21;86.13
26531;BME280;14201;43.188;24.160;2022-12-07T14:17:01;99339.66;;;11.20;85.65
26531;BME280;14201;43.188;24.160;2022-12-07T14:19:47;99339.50;;;11.15;86.19
26531;BME280;14201;43.188;24.160;2022-12-07T14:24:48;99344.31;;;11.04;86.32
26531;BME280;14201;43.188;24.160;2022-12-07T14:27:22;99340.72;;;11.01;86.68
26531;BME280;14201;43.188;24.160;2022-12-07T14:29:51;99339.63;;;10.94;86.08
26531;BME280;14201;43.188;24.160;2022-12-07T14:32:25;99342.97;;;10.90;87.07
26531;BME280;14201;43.188;24.160;2022-12-07T14:37:30;99339.50;;;10.91;85.89
26531;BME280;14201;43.188;24.160;2022-12-07T14:39:56;99347.28;;;10.90;85.87
26531;BME280;14201;43.188;24.160;2022-12-07T14:42:24;99341.75;;;10.80;86.22
26531;BME280;14201;43.188;24.160;2022-12-07T14:44:51;99336.25;;;10.73;86.50
26531;BME280;14201;43.188;24.160;2022-12-07T14:47:17;99339.66;;;10.72;86.68
26531;BME280;14201;43.188;24.160;2022-12-07T14:49:42;99344.44;;;10.59;87.05
26531;BME280;14201;43.188;24.160;2022-12-07T14:52:23;99348.41;;;10.50;87.71
26531;BME280;14201;43.188;24.160;2022-12-07T14:54:50;99360.41;;;10.46;88.03
26531;BME280;14201;43.188;24.160;2022-12-07T14:57:16;99353.91;;;10.35;88.59
26531;BME280;14201;43.188;24.160;2022-12-07T14:59:41;99361.22;;;10.22;88.76
26531;BME280;14201;43.188;24.160;2022-12-07T15:02:10;99367.31;;;10.23;89.23
26531;BME280;14201;43.188;24.160;2022-12-07T15:04:36;99357.44;;;10.14;89.31
26531;BME280;14201;43.188;24.160;2022-12-07T15:07:04;99361.88;;;10.17;89.68
26531;BME280;14201;43.188;24.160;2022-12-07T15:09:31;99378.50;;;10.20;89.85
26531;BME280;14201;43.188;24.160;2022-12-07T15:11:56;99378.38;;;10.17;89.37
26531;BME280;14201;43.188;24.160;2022-12-07T15:14:22;99378.13;;;10.11;89.23
26531;BME280;14201;43.188;24.160;2022-12-07T15:16:47;99371.56;;;9.98;90.02
26531;BME280;14201;43.188;24.160;2022-12-07T15:19:16;99372.25;;;9.94;89.95